createdAt,value
2023-02-21T00:02:59.374Z,1.50
2023-02-21T00:08:19.610Z,1.55
2023-02-21T00:13:39.715Z,1.35
2023-02-21T00:19:02.264Z,1.10
2023-02-21T00:24:22.822Z,1.38
2023-02-21T00:29:42.822Z,1.30
2023-02-21T00:35:05.398Z,1.65
2023-02-21T00:40:27.568Z,1.30
2023-02-21T00:45:47.576Z,1.45
2023-02-21T00:51:10.196Z,1.65
2023-02-21T00:56:30.224Z,1.45
2023-02-21T01:01:50.255Z,1.40
2023-02-21T01:07:12.849Z,1.00
2023-02-21T01:12:32.829Z,1.30
2023-02-21T01:17:52.824Z,1.50
2023-02-21T01:23:15.406Z,0.98
2023-02-21T01:28:35.473Z,1.15
2023-02-21T01:33:56.666Z,1.50
2023-02-21T01:44:49.895Z,1.13
2023-02-21T01:50:09.931Z,1.50
2023-02-21T01:55:32.827Z,1.23
2023-02-21T02:00:53.670Z,1.27
2023-02-21T02:06:16.223Z,1.40
2023-02-21T02:11:58.329Z,1.50
2023-02-21T02:17:16.735Z,1.13
2023-02-21T02:22:46.228Z,1.27
2023-02-21T02:28:08.187Z,1.10
2023-02-21T02:34:03.298Z,1.50
2023-02-21T02:39:23.117Z,1.27
2023-02-21T02:44:37.809Z,1.20
2023-02-21T02:49:48.032Z,1.45
2023-02-21T02:55:07.674Z,1.10
2023-02-21T03:00:18.725Z,1.15
2023-02-21T03:05:41.942Z,1.27
2023-02-21T03:11:01.269Z,1.20
2023-02-21T03:16:16.390Z,1.15
2023-02-21T03:21:27.621Z,1.20
2023-02-21T03:26:42.970Z,0.98
2023-02-21T03:31:57.785Z,1.25
2023-02-21T03:37:05.711Z,1.20
2023-02-21T03:42:15.873Z,1.60
2023-02-21T03:47:23.686Z,1.10
2023-02-21T03:52:31.179Z,0.90
2023-02-21T03:57:41.329Z,0.95
2023-02-21T04:02:48.826Z,1.00
2023-02-21T04:07:56.360Z,1.40
2023-02-21T04:13:07.410Z,1.10
2023-02-21T04:18:14.958Z,1.27
2023-02-21T04:23:23.801Z,1.10
2023-02-21T04:28:33.884Z,1.27
2023-02-21T04:33:41.426Z,1.43
2023-02-21T04:38:50.486Z,1.30
2023-02-21T04:44:00.697Z,1.48
2023-02-21T04:49:08.301Z,1.50
2023-02-21T04:54:15.830Z,1.33
2023-02-21T04:59:25.917Z,1.40
2023-02-21T05:04:33.508Z,1.50
2023-02-21T05:09:41.039Z,1.10
2023-02-21T05:14:51.173Z,1.00
2023-02-21T05:19:58.700Z,1.40
2023-02-21T05:25:06.379Z,1.80
2023-02-21T05:30:19.368Z,1.65
2023-02-21T05:35:26.957Z,1.42
2023-02-21T05:40:34.505Z,1.33
2023-02-21T05:45:44.911Z,1.40
2023-02-21T05:50:52.452Z,1.42
2023-02-21T05:56:00.639Z,1.58
2023-02-21T06:01:11.144Z,1.42
2023-02-21T06:06:18.868Z,1.70
2023-02-21T06:11:28.203Z,1.13
2023-02-21T06:16:39.879Z,1.50
2023-02-21T06:21:47.750Z,1.70
2023-02-21T06:26:55.242Z,1.38
2023-02-21T06:32:05.445Z,1.30
2023-02-21T06:37:13.209Z,1.30
2023-02-21T06:42:22.872Z,1.25
2023-02-21T06:47:33.106Z,2.17
2023-02-21T06:52:40.622Z,1.67
2023-02-21T06:57:48.114Z,1.52
2023-02-21T07:02:58.261Z,1.58
2023-02-21T07:08:05.913Z,1.63
2023-02-21T07:13:13.686Z,2.10
2023-02-21T07:18:23.814Z,1.50
2023-02-21T07:23:31.453Z,3.22
2023-02-21T07:28:39.080Z,2.47
2023-02-21T07:33:49.257Z,1.90
2023-02-21T07:38:56.785Z,2.08
2023-02-21T07:44:04.289Z,2.00
2023-02-21T07:49:14.379Z,2.30
2023-02-21T07:54:23.317Z,2.23
2023-02-21T07:59:31.272Z,1.88
2023-02-21T08:04:42.187Z,2.63
2023-02-21T08:14:58.034Z,2.22
2023-02-21T08:20:09.032Z,2.03
2023-02-21T08:25:18.305Z,1.80
2023-02-21T08:30:26.372Z,2.17
2023-02-21T08:35:36.600Z,2.10
2023-02-21T08:40:44.259Z,2.03
2023-02-21T08:45:51.760Z,1.85
2023-02-21T08:51:02.099Z,2.25
2023-02-21T08:56:11.326Z,2.27
2023-02-21T09:01:19.213Z,1.92
2023-02-21T09:06:30.384Z,2.10
2023-02-21T09:16:47.749Z,1.60
2023-02-21T09:22:00.800Z,1.83
2023-02-21T09:27:09.494Z,1.70
2023-02-21T09:32:17.465Z,1.60
2023-02-21T09:37:27.688Z,1.40
2023-02-21T09:42:36.518Z,1.67
2023-02-21T09:47:45.310Z,1.15
2023-02-21T09:52:55.500Z,1.33
2023-02-21T09:58:04.332Z,1.08
2023-02-21T10:03:31.630Z,1.00
2023-02-21T10:08:51.394Z,1.08
2023-02-21T10:14:08.893Z,1.10
2023-02-21T10:19:22.098Z,1.20
2023-02-21T10:24:38.611Z,0.90
2023-02-21T10:29:51.109Z,1.00
2023-02-21T10:35:00.365Z,0.90
2023-02-21T10:40:33.749Z,0.98
2023-02-21T10:45:47.637Z,0.80
2023-02-21T10:51:09.260Z,0.90
2023-02-21T11:01:39.813Z,0.80
2023-02-21T11:06:49.343Z,0.60
2023-02-21T11:12:07.852Z,0.60
2023-02-21T11:17:19.507Z,0.63
2023-02-21T11:22:37.981Z,0.90
2023-02-21T11:28:00.552Z,0.50
2023-02-21T11:33:09.387Z,0.60
2023-02-21T11:38:36.308Z,0.57
2023-02-21T11:43:49.160Z,0.45
2023-02-21T11:49:04.234Z,0.50
2023-02-21T11:54:12.334Z,0.50
2023-02-21T11:59:32.363Z,0.80
2023-02-21T12:04:58.806Z,0.40
2023-02-21T12:10:31.302Z,0.50
2023-02-21T12:15:51.130Z,0.70
2023-02-21T12:21:16.155Z,0.47
2023-02-21T12:26:46.581Z,0.68
2023-02-21T12:32:24.553Z,0.40
2023-02-21T12:37:38.708Z,0.52
2023-02-21T12:43:06.141Z,0.60
2023-02-21T12:48:27.814Z,0.70
2023-02-21T12:58:52.715Z,0.45
2023-02-21T13:04:16.614Z,0.40
2023-02-21T13:09:32.185Z,0.40
2023-02-21T13:14:45.308Z,0.40
2023-02-21T13:20:02.000Z,0.40
2023-02-21T13:25:23.293Z,0.40
2023-02-21T13:30:44.410Z,0.80
2023-02-21T13:35:54.925Z,0.35
2023-02-21T13:41:10.421Z,0.47
2023-02-21T13:46:46.408Z,0.40
2023-02-21T13:51:57.552Z,0.55
2023-02-21T13:57:06.864Z,0.50
2023-02-21T14:02:30.792Z,0.65
2023-02-21T14:08:00.625Z,0.50
2023-02-21T14:13:19.625Z,0.50
2023-02-21T14:18:29.615Z,0.57
2023-02-21T14:23:45.582Z,0.40
2023-02-21T14:29:05.434Z,0.57
2023-02-21T14:34:15.260Z,0.40
2023-02-21T14:39:26.657Z,0.60
2023-02-21T14:44:42.683Z,0.57
2023-02-21T14:50:21.854Z,0.60
2023-02-21T14:55:46.761Z,0.73
2023-02-21T15:01:06.670Z,0.70
2023-02-21T15:06:18.449Z,0.40
2023-02-21T15:11:36.503Z,0.50
2023-02-21T15:16:47.630Z,0.40
2023-02-21T15:22:16.511Z,0.40
2023-02-21T15:27:26.689Z,0.60
2023-02-21T15:32:34.266Z,0.57
2023-02-21T15:37:43.993Z,0.40
2023-02-21T15:42:55.897Z,0.50
2023-02-21T15:48:04.589Z,0.55
2023-02-21T15:53:17.494Z,0.57
2023-02-21T15:58:29.751Z,0.22
2023-02-21T16:03:40.703Z,0.40
2023-02-21T16:08:59.100Z,0.40
2023-02-21T16:14:16.505Z,0.25
2023-02-21T16:19:26.992Z,0.30
2023-02-21T16:24:35.577Z,0.50
2023-02-21T16:29:45.741Z,0.68
2023-02-21T16:34:55.242Z,0.52
2023-02-21T16:40:03.124Z,0.60
2023-02-21T16:45:13.518Z,1.00
2023-02-21T16:50:24.562Z,0.90
2023-02-21T16:55:32.434Z,1.17
2023-02-21T17:00:42.524Z,0.80
2023-02-21T17:05:50.488Z,0.93
2023-02-21T17:10:58.637Z,0.70
2023-02-21T17:16:09.943Z,1.02
2023-02-21T17:21:17.828Z,1.25
2023-02-21T17:26:25.593Z,1.15
2023-02-21T17:31:35.959Z,1.95
2023-02-21T17:36:43.719Z,1.20
2023-02-21T17:41:52.739Z,0.85
2023-02-21T17:47:02.923Z,1.40
2023-02-21T17:52:11.758Z,1.20
2023-02-21T17:57:19.573Z,1.45
2023-02-21T18:02:30.272Z,1.05
2023-02-21T18:07:37.947Z,1.00
2023-02-21T18:12:45.790Z,1.27
2023-02-21T18:17:56.248Z,1.60
2023-02-21T18:23:06.565Z,1.93
2023-02-21T18:28:14.084Z,1.40
2023-02-21T18:33:27.172Z,1.60
2023-02-21T18:38:35.087Z,2.10
2023-02-21T18:43:44.103Z,2.00
2023-02-21T18:48:54.292Z,1.98
2023-02-21T18:54:01.748Z,2.23
2023-02-21T18:59:10.847Z,1.95
2023-02-21T19:04:21.069Z,2.17
2023-02-21T19:09:28.528Z,2.27
2023-02-21T19:14:36.992Z,2.15
2023-02-21T19:19:47.008Z,2.53
2023-02-21T19:24:54.509Z,2.78
2023-02-21T19:30:02.306Z,2.60
